Time;durP1;ratioP1;P1;durP2;ratioP2;P2;SDS_P1;SDS_P2;PMS_P1;PMS_P2;Temp;Humidity;BMP_temperature;BMP_pressure;BME280_temperature;BME280_humidity;BME280_pressure;Samples;Min_cycle;Max_cycle;Signal;HPM_P1;HPM_P2
2023/07/27 00:01:39;;;;;;;6.55;0.47;;;;;;;19.64;55.28;101012.25;5066970;28;20033;-79
2023/07/27 00:04:06;;;;;;;0.40;0.30;;;;;;;19.62;55.48;101018.66;5070806;28;20047;-83
2023/07/27 00:06:32;;;;;;;0.05;0.05;;;;;;;19.60;56.31;101007.13;5054269;28;20602;-82
2023/07/27 00:08:58;;;;;;;0.00;0.00;;;;;;;19.57;56.35;101010.84;5054824;28;20025;-82
2023/07/27 00:11:24;;;;;;;0.00;0.00;;;;;;;19.52;56.44;101008.41;5056038;28;20020;-80
2023/07/27 00:13:51;;;;;;;0.00;0.00;;;;;;;19.42;57.06;101006.34;5057485;28;20021;-82
2023/07/27 00:16:17;;;;;;;3.65;1.27;;;;;;;19.38;57.68;101005.63;5058180;28;20021;-81
2023/07/27 00:18:43;;;;;;;0.00;0.00;;;;;;;19.32;58.46;101000.59;5058057;28;20037;-82
2023/07/27 00:21:09;;;;;;;0.10;0.10;;;;;;;19.26;57.85;101001.78;5057870;28;20029;-82
2023/07/27 00:23:38;;;;;;;0.03;0.03;;;;;;;19.16;60.53;100997.84;5057469;28;20090;-81
2023/07/27 00:26:07;;;;;;;0.57;0.57;;;;;;;19.02;59.19;101004.81;5058848;28;20021;-83
2023/07/27 00:28:33;;;;;;;0.00;0.00;;;;;;;18.90;60.08;101005.44;5059075;28;20037;-83
2023/07/27 00:30:59;;;;;;;0.00;0.00;;;;;;;18.79;62.45;100995.28;5058852;28;20405;-82
2023/07/27 00:33:26;;;;;;;0.10;0.10;;;;;;;18.74;61.74;100990.16;5055909;28;20029;-82
2023/07/27 00:35:56;;;;;;;0.10;0.10;;;;;;;18.71;63.94;100998.34;5058725;28;20052;-82
2023/07/27 00:38:22;;;;;;;0.10;0.10;;;;;;;18.59;63.18;100990.91;5059135;28;20067;-82
2023/07/27 00:40:48;;;;;;;0.00;0.00;;;;;;;18.51;64.39;100988.63;5058881;28;20037;-82
2023/07/27 00:43:15;;;;;;;0.00;0.00;;;;;;;18.40;64.83;100991.84;5057977;28;20029;-80
2023/07/27 00:45:41;;;;;;;0.00;0.00;;;;;;;18.32;64.76;100991.38;5059082;28;20036;-79
2023/07/27 00:48:09;;;;;;;0.10;0.10;;;;;;;18.29;64.70;100991.53;5060191;28;20036;-80
2023/07/27 00:50:36;;;;;;;0.08;0.08;;;;;;;18.24;65.75;100986.41;5060331;28;20039;-79
2023/07/27 00:53:09;;;;;;;0.03;0.03;;;;;;;18.19;67.35;100983.06;5059621;28;20029;-80
2023/07/27 00:55:35;;;;;;;0.10;0.10;;;;;;;18.18;67.94;100975.09;5061282;28;20096;-80
2023/07/27 00:58:02;;;;;;;0.00;0.00;;;;;;;18.17;68.26;100976.94;5060189;28;20025;-80
2023/07/27 01:00:30;;;;;;;0.10;0.10;;;;;;;18.09;69.47;100966.59;5061638;28;20079;-81
2023/07/27 01:02:57;;;;;;;6.82;2.35;;;;;;;18.11;69.09;100962.00;5052311;28;20028;-79
2023/07/27 01:05:23;;;;;;;0.00;0.00;;;;;;;18.08;68.67;100954.13;5061100;28;20044;-79
2023/07/27 01:07:50;;;;;;;0.00;0.00;;;;;;;18.02;70.40;100949.06;5061718;28;20634;-80
2023/07/27 01:10:16;;;;;;;0.00;0.00;;;;;;;18.03;69.25;100944.56;5064365;28;20033;-80
2023/07/27 01:12:49;;;;;;;0.32;0.32;;;;;;;18.02;70.54;100938.34;5061829;28;20033;-79
2023/07/27 01:15:18;;;;;;;0.00;0.00;;;;;;;17.99;69.94;100937.63;5064977;28;20031;-79
2023/07/27 01:17:54;;;;;;;1.17;0.68;;;;;;;18.06;69.58;100929.19;5066906;28;20043;-80
2023/07/27 01:23:30;;;;;;;0.10;0.10;;;;;;;18.09;69.86;100937.09;5072887;28;20941;-83
2023/07/27 01:26:18;;;;;;;0.00;0.00;;;;;;;18.12;70.12;100933.41;5063410;28;20112;-84
2023/07/27 01:29:11;;;;;;;0.00;0.00;;;;;;;18.11;70.07;100916.44;5072234;28;20017;-84
2023/07/27 01:31:42;;;;;;;0.00;0.00;;;;;;;18.13;70.11;100907.44;5060542;28;20028;-83
2023/07/27 01:34:29;;;;;;;0.10;0.10;;;;;;;18.18;70.34;100900.91;5069862;28;20026;-83
2023/07/27 01:37:01;;;;;;;0.00;0.00;;;;;;;18.14;70.26;100893.09;5068264;28;20024;-83
2023/07/27 01:39:30;;;;;;;0.10;0.10;;;;;;;18.14;70.60;100893.94;5071999;28;20035;-82
2023/07/27 01:41:58;;;;;;;0.08;0.08;;;;;;;18.09;70.39;100880.78;5073028;28;20049;-80
2023/07/27 01:44:28;;;;;;;0.20;0.20;;;;;;;18.10;70.61;100881.66;5072816;28;20020;-81
2023/07/27 01:46:56;;;;;;;0.08;0.08;;;;;;;18.06;70.83;100875.56;5073165;28;20020;-82
2023/07/27 01:49:23;;;;;;;0.10;0.10;;;;;;;18.04;70.60;100874.78;5067450;28;20100;-82
2023/07/27 01:51:50;;;;;;;0.05;0.05;;;;;;;18.00;70.61;100869.66;5065294;28;20066;-81
2023/07/27 01:54:17;;;;;;;0.00;0.00;;;;;;;17.98;70.56;100871.56;5064321;28;20022;-81
2023/07/27 01:56:45;;;;;;;0.00;0.00;;;;;;;17.97;70.56;100859.97;5066960;28;20018;-82
2023/07/27 01:59:12;;;;;;;0.03;0.03;;;;;;;17.94;71.12;100862.78;5064613;28;20073;-82
2023/07/27 02:01:42;;;;;;;0.00;0.00;;;;;;;17.94;70.87;100861.00;5066901;28;20097;-83
2023/07/27 02:04:09;;;;;;;0.00;0.00;;;;;;;17.94;71.11;100860.13;5068615;28;20018;-82
2023/07/27 02:06:35;;;;;;;0.10;0.10;;;;;;;17.92;71.49;100856.63;5068210;28;20496;-82
2023/07/27 02:09:01;;;;;;;0.20;0.20;;;;;;;17.88;70.26;100846.97;5062437;28;20057;-83
2023/07/27 02:11:28;;;;;;;0.00;0.00;;;;;;;17.82;70.87;100840.16;5062434;28;20017;-85
2023/07/27 02:14:06;;;;;;;0.00;0.00;;;;;;;17.78;71.24;100831.38;5060825;28;20437;-84
2023/07/27 02:16:55;;;;;;;0.00;0.00;;;;;;;17.82;70.91;100824.06;5060266;28;20029;-82
2023/07/27 02:19:29;;;;;;;0.08;0.08;;;;;;;17.76;71.63;100821.69;5059680;28;20024;-85
2023/07/27 02:21:57;;;;;;;0.10;0.10;;;;;;;17.73;70.81;100816.47;5058122;28;20028;-84
2023/07/27 02:24:24;;;;;;;0.00;0.00;;;;;;;17.69;71.26;100810.41;5052721;28;20033;-84
2023/07/27 02:26:50;;;;;;;0.20;0.20;;;;;;;17.63;71.83;100802.66;5056965;28;20114;-82
2023/07/27 02:29:17;;;;;;;0.20;0.20;;;;;;;17.65;71.07;100795.44;5055748;28;20033;-83
2023/07/27 02:31:43;;;;;;;0.08;0.08;;;;;;;17.63;71.21;100779.44;5055069;28;20056;-83
2023/07/27 02:34:10;;;;;;;0.30;0.30;;;;;;;17.63;71.67;100779.44;5042767;28;20053;-82
2023/07/27 02:36:36;;;;;;;0.00;0.00;;;;;;;17.62;71.45;100785.75;5041669;28;20108;-85
2023/07/27 02:39:02;;;;;;;0.10;0.10;;;;;;;17.61;72.15;100767.06;5041966;28;20553;-84
2023/07/27 02:41:28;;;;;;;0.00;0.00;;;;;;;17.61;72.08;100767.91;5041642;28;20030;-84
2023/07/27 02:43:54;;;;;;;0.88;0.43;;;;;;;17.63;71.53;100754.44;5040680;28;20147;-84
2023/07/27 02:46:20;;;;;;;1.08;1.08;;;;;;;17.65;72.24;100741.84;5051644;28;20068;-83
2023/07/27 02:48:47;;;;;;;0.10;0.10;;;;;;;17.64;72.92;100740.09;5048392;28;20021;-82
2023/07/27 02:51:13;;;;;;;0.00;0.00;;;;;;;17.65;72.72;100732.94;5049367;28;20055;-82
2023/07/27 02:53:39;;;;;;;0.45;0.45;;;;;;;17.65;73.01;100727.59;5048221;28;20040;-81
2023/07/27 02:56:08;;;;;;;0.05;0.05;;;;;;;17.68;72.83;100725.59;5040166;28;20045;-82
2023/07/27 02:58:34;;;;;;;0.10;0.10;;;;;;;17.66;73.21;100724.84;5034648;28;20485;-83
2023/07/27 03:01:02;;;;;;;0.00;0.00;;;;;;;17.65;73.46;100715.06;5036752;28;20029;-84
2023/07/27 03:03:28;;;;;;;0.10;0.10;;;;;;;17.63;73.37;100704.41;5033677;28;20065;-83
2023/07/27 03:06:00;;;;;;;0.10;0.10;;;;;;;17.67;73.27;100705.13;5036105;28;20029;-82
2023/07/27 03:08:27;;;;;;;10.02;2.00;;;;;;;17.66;73.37;100703.41;5033522;28;20030;-83
2023/07/27 03:10:54;;;;;;;0.00;0.00;;;;;;;17.63;73.40;100696.38;5036537;28;20025;-84
2023/07/27 03:13:20;;;;;;;0.10;0.10;;;;;;;17.63;73.73;100684.78;5032047;28;20029;-83
2023/07/27 03:15:46;;;;;;;0.43;0.43;;;;;;;17.61;73.82;100686.69;5036393;28;20026;-82
2023/07/27 03:18:12;;;;;;;0.03;0.03;;;;;;;17.61;73.75;100678.66;5036208;28;20510;-83
2023/07/27 03:20:43;;;;;;;0.10;0.10;;;;;;;17.59;73.78;100678.72;5034233;28;20025;-84
2023/07/27 03:23:10;;;;;;;0.08;0.08;;;;;;;17.56;73.83;100683.41;5032702;28;20029;-82
2023/07/27 03:25:37;;;;;;;0.10;0.10;;;;;;;17.55;74.11;100676.28;5032609;28;20040;-82
2023/07/27 03:28:06;;;;;;;0.20;0.20;;;;;;;17.57;73.88;100669.03;5033533;28;20489;-83
2023/07/27 03:30:34;;;;;;;0.10;0.10;;;;;;;17.58;74.06;100666.28;5031953;28;20042;-82
2023/07/27 03:33:00;;;;;;;0.08;0.08;;;;;;;17.52;73.88;100661.25;5031988;28;20025;-83
2023/07/27 03:35:26;;;;;;;0.17;0.17;;;;;;;17.46;74.10;100657.06;5031643;28;20026;-83
2023/07/27 03:37:52;;;;;;;0.00;0.00;;;;;;;17.45;74.43;100641.09;5034515;28;20030;-85
2023/07/27 03:40:19;;;;;;;0.03;0.03;;;;;;;17.44;74.13;100639.34;5036062;28;20032;-83
2023/07/27 03:42:46;;;;;;;0.10;0.10;;;;;;;17.38;74.35;100637.00;5036652;28;20525;-84
2023/07/27 03:45:15;;;;;;;0.15;0.15;;;;;;;17.37;74.06;100629.91;5035505;28;20032;-82
2023/07/27 03:47:42;;;;;;;0.00;0.00;;;;;;;17.38;74.13;100637.84;5035987;28;20038;-80
2023/07/27 03:50:09;;;;;;;0.10;0.10;;;;;;;17.33;74.25;100631.88;5035348;28;20056;-81
2023/07/27 03:52:36;;;;;;;0.10;0.10;;;;;;;17.35;74.19;100624.63;5034526;28;20025;-82
2023/07/27 03:55:03;;;;;;;0.00;0.00;;;;;;;17.37;74.31;100625.44;5032319;28;20029;-82
2023/07/27 03:57:29;;;;;;;0.00;0.00;;;;;;;17.37;74.69;100619.19;5033133;28;20481;-82
2023/07/27 03:59:57;;;;;;;0.43;0.28;;;;;;;17.40;74.65;100619.91;5037565;28;20117;-82
2023/07/27 04:02:24;;;;;;;0.80;0.30;;;;;;;17.38;74.57;100605.69;5039134;28;20021;-83
2023/07/27 04:04:51;;;;;;;0.10;0.10;;;;;;;17.39;74.39;100612.78;5041943;28;20033;-83
2023/07/27 04:07:18;;;;;;;0.08;0.08;;;;;;;17.37;74.22;100608.47;5043120;28;20396;-83
2023/07/27 04:09:44;;;;;;;0.25;0.25;;;;;;;17.37;74.49;100603.13;5042527;28;20026;-83
2023/07/27 04:12:11;;;;;;;0.40;0.40;;;;;;;17.39;74.15;100599.41;5042938;28;20029;-81
2023/07/27 04:14:38;;;;;;;0.10;0.10;;;;;;;17.38;74.31;100589.63;5042194;28;20021;-85
2023/07/27 04:17:05;;;;;;;0.10;0.10;;;;;;;17.37;74.76;100593.28;5042684;28;20036;-83
2023/07/27 04:19:34;;;;;;;0.10;0.10;;;;;;;17.38;74.32;100584.28;5041986;28;20056;-81
2023/07/27 04:22:00;;;;;;;0.10;0.10;;;;;;;17.40;74.59;100582.41;5046411;28;20033;-80
2023/07/27 04:24:26;;;;;;;0.13;0.13;;;;;;;17.43;74.59;100581.38;5055293;28;20029;-81
2023/07/27 04:26:52;;;;;;;0.00;0.00;;;;;;;17.46;74.13;100587.44;5047585;28;20184;-82
2023/07/27 04:29:18;;;;;;;0.10;0.10;;;;;;;17.46;74.43;100584.75;5049569;28;20029;-82
2023/07/27 04:31:44;;;;;;;0.00;0.00;;;;;;;17.41;75.02;100577.94;5050324;28;20028;-81
2023/07/27 04:34:10;;;;;;;0.10;0.10;;;;;;;17.44;74.77;100580.44;5045222;28;20030;-80
2023/07/27 04:36:36;;;;;;;0.28;0.28;;;;;;;17.46;74.99;100575.88;5041717;28;20079;-82
2023/07/27 04:39:02;;;;;;;0.20;0.20;;;;;;;17.51;74.80;100564.88;5041259;28;20036;-82
2023/07/27 04:41:28;;;;;;;0.10;0.10;;;;;;;17.50;75.19;100556.00;5042108;28;20056;-80
2023/07/27 04:43:57;;;;;;;0.10;0.10;;;;;;;17.51;75.22;100560.41;5041093;28;20041;-83
2023/07/27 04:46:23;;;;;;;0.00;0.00;;;;;;;17.56;74.72;100560.16;5041876;28;20392;-82
2023/07/27 04:48:49;;;;;;;0.00;0.00;;;;;;;17.57;74.87;100553.84;5046801;28;20017;-79
2023/07/27 04:51:15;;;;;;;0.10;0.10;;;;;;;17.59;75.13;100551.94;5057214;28;20021;-80
2023/07/27 04:53:41;;;;;;;0.10;0.10;;;;;;;17.59;75.00;100543.91;5049861;28;20432;-84
2023/07/27 04:56:07;;;;;;;0.10;0.10;;;;;;;17.58;75.51;100548.41;5043138;28;20037;-82
2023/07/27 04:58:33;;;;;;;0.10;0.10;;;;;;;17.65;74.86;100542.72;5039838;28;20392;-82
2023/07/27 05:01:00;;;;;;;0.03;0.03;;;;;;;17.68;75.07;100539.88;5031474;28;20388;-82
2023/07/27 05:03:26;;;;;;;0.10;0.10;;;;;;;17.71;75.19;100531.69;5039324;28;20037;-81
2023/07/27 05:05:53;;;;;;;0.10;0.10;;;;;;;17.72;75.12;100518.19;5039588;28;20677;-83
2023/07/27 05:08:19;;;;;;;0.10;0.10;;;;;;;17.73;75.47;100525.28;5039987;28;20040;-83
2023/07/27 05:10:45;;;;;;;0.08;0.08;;;;;;;17.77;75.29;100526.84;5039481;28;20033;-82
2023/07/27 05:13:11;;;;;;;0.00;0.00;;;;;;;17.78;75.35;100517.84;5039909;28;20031;-81
2023/07/27 05:15:40;;;;;;;0.08;0.08;;;;;;;17.79;75.75;100516.03;5038781;28;20503;-82
2023/07/27 05:18:06;;;;;;;0.00;0.00;;;;;;;17.84;75.31;100510.41;5040530;28;20022;-82
2023/07/27 05:20:33;;;;;;;0.00;0.00;;;;;;;17.89;75.36;100508.34;5041542;28;20041;-82
2023/07/27 05:23:00;;;;;;;0.00;0.00;;;;;;;17.90;75.44;100504.72;5040865;28;20033;-84
2023/07/27 05:25:26;;;;;;;0.00;0.00;;;;;;;17.90;75.63;100505.56;5040127;28;20029;-81
2023/07/27 05:27:52;;;;;;;0.10;0.10;;;;;;;17.93;75.37;100505.41;5041118;28;20084;-81
2023/07/27 05:30:18;;;;;;;0.10;0.10;;;;;;;17.93;75.71;100499.16;5040067;28;20026;-83
2023/07/27 05:32:44;;;;;;;0.00;0.00;;;;;;;17.98;75.33;100502.50;5039653;28;20021;-83
2023/07/27 05:35:10;;;;;;;0.00;0.00;;;;;;;18.00;75.94;100497.06;5040530;28;20025;-84
2023/07/27 05:37:37;;;;;;;0.08;0.08;;;;;;;18.02;75.98;100498.69;5039881;28;20408;-82
2023/07/27 05:40:04;;;;;;;0.00;0.00;;;;;;;18.03;75.93;100495.06;5039683;28;20040;-84
2023/07/27 05:42:30;;;;;;;2.00;0.45;;;;;;;18.07;76.04;100493.09;5039630;28;20392;-83
2023/07/27 05:44:56;;;;;;;0.00;0.00;;;;;;;18.08;75.95;100482.25;5040168;28;20033;-83
2023/07/27 05:47:22;;;;;;;0.00;0.00;;;;;;;18.13;75.83;100481.13;5039680;28;20030;-82
2023/07/27 05:49:48;;;;;;;0.00;0.00;;;;;;;18.18;76.04;100476.34;5040597;28;20058;-82
2023/07/27 05:52:14;;;;;;;0.10;0.10;;;;;;;18.21;76.20;100470.84;5038573;28;20025;-82
2023/07/27 05:54:40;;;;;;;0.00;0.00;;;;;;;18.27;76.07;100475.84;5039724;28;20087;-82
2023/07/27 05:57:06;;;;;;;0.43;0.43;;;;;;;18.31;76.17;100460.44;5039378;28;20029;-84
2023/07/27 05:59:32;;;;;;;0.13;0.13;;;;;;;18.32;76.13;100468.38;5044554;28;20032;-83
2023/07/27 06:01:59;;;;;;;0.10;0.10;;;;;;;18.37;76.20;100462.75;5051891;28;20032;-81
2023/07/27 06:04:27;;;;;;;0.15;0.15;;;;;;;18.37;76.63;100460.09;5053377;28;20026;-81
2023/07/27 06:06:54;;;;;;;0.00;0.00;;;;;;;18.43;76.17;100463.25;5049335;28;20089;-83
2023/07/27 06:09:20;;;;;;;0.05;0.05;;;;;;;18.42;76.44;100460.66;5048253;28;20032;-81
2023/07/27 06:11:46;;;;;;;0.05;0.05;;;;;;;18.42;76.41;100461.53;5043717;28;20025;-81
2023/07/27 06:14:12;;;;;;;0.47;0.47;;;;;;;18.46;76.46;100451.47;5040667;28;20064;-81
2023/07/27 06:16:38;;;;;;;0.20;0.20;;;;;;;18.51;76.75;100460.09;5039027;28;20029;-82
2023/07/27 06:19:04;;;;;;;0.10;0.10;;;;;;;18.53;76.49;100452.84;5039027;28;20030;-81
2023/07/27 06:21:31;;;;;;;0.00;0.00;;;;;;;18.58;77.07;100457.94;5041282;28;20046;-83
2023/07/27 06:23:57;;;;;;;0.10;0.10;;;;;;;18.67;76.71;100449.31;5038235;28;20079;-83
2023/07/27 06:26:23;;;;;;;0.05;0.05;;;;;;;18.68;77.08;100447.50;5040076;28;20053;-83
2023/07/27 06:28:49;;;;;;;0.10;0.10;;;;;;;18.70;77.28;100451.81;5038817;28;20083;-81
2023/07/27 06:31:15;;;;;;;0.10;0.10;;;;;;;18.80;77.05;100448.59;5038055;28;20380;-83
2023/07/27 06:33:41;;;;;;;0.10;0.10;;;;;;;18.84;77.38;100450.13;5038286;28;20025;-83
2023/07/27 06:36:08;;;;;;;0.00;0.00;;;;;;;18.88;76.99;100440.94;5042373;28;20025;-84
2023/07/27 06:38:34;;;;;;;0.10;0.10;;;;;;;18.95;77.15;100439.63;5044002;28;20033;-84
2023/07/27 06:41:00;;;;;;;0.10;0.10;;;;;;;18.90;77.62;100441.69;5045017;28;20100;-83
2023/07/27 06:43:26;;;;;;;0.05;0.05;;;;;;;18.96;77.19;100435.97;5042876;28;20032;-84
2023/07/27 06:45:52;;;;;;;0.10;0.10;;;;;;;18.97;77.10;100432.34;5043601;28;20064;-83
2023/07/27 06:48:18;;;;;;;0.20;0.20;;;;;;;19.01;76.47;100433.00;5043320;28;20034;-83
2023/07/27 06:50:44;;;;;;;0.10;0.10;;;;;;;18.96;77.09;100435.97;5041649;28;20041;-83
2023/07/27 06:53:10;;;;;;;0.10;0.10;;;;;;;19.03;76.92;100440.00;5042064;28;20078;-83
2023/07/27 06:55:36;;;;;;;0.10;0.10;;;;;;;19.03;76.85;100440.00;5042159;28;20033;-83
2023/07/27 06:58:02;;;;;;;0.08;0.08;;;;;;;18.88;77.78;100449.84;5043184;28;20030;-83
2023/07/27 07:00:29;;;;;;;0.20;0.20;;;;;;;19.04;77.48;100447.13;5043237;28;20025;-82
2023/07/27 07:02:55;;;;;;;0.05;0.05;;;;;;;19.05;76.89;100439.91;5042144;28;20061;-84
2023/07/27 07:05:21;;;;;;;0.10;0.10;;;;;;;19.09;77.34;100441.47;5043424;28;20017;-82
2023/07/27 07:07:47;;;;;;;0.00;0.00;;;;;;;19.15;77.59;100440.19;5039457;28;20382;-83
2023/07/27 07:10:13;;;;;;;0.17;0.17;;;;;;;19.21;77.44;100431.75;5039763;28;20025;-84
2023/07/27 07:12:40;;;;;;;0.10;0.10;;;;;;;19.22;77.81;100441.56;5038404;28;20029;-83
2023/07/27 07:15:07;;;;;;;0.00;0.00;;;;;;;19.16;78.11;100440.09;5039141;28;20095;-84
2023/07/27 07:17:33;;;;;;;0.15;0.15;;;;;;;19.21;78.26;100435.31;5039284;28;20021;-83
2023/07/27 07:19:59;;;;;;;0.13;0.13;;;;;;;19.28;78.44;100430.44;5039141;28;20025;-84
2023/07/27 07:22:25;;;;;;;1.25;0.63;;;;;;;19.28;78.14;100430.44;5038107;28;20029;-83
2023/07/27 07:24:52;;;;;;;0.10;0.10;;;;;;;19.36;78.48;100444.22;5038819;28;20052;-82
2023/07/27 07:27:18;;;;;;;0.43;0.43;;;;;;;19.46;77.83;100435.59;5038625;28;20017;-82
2023/07/27 07:29:52;;;;;;;0.10;0.10;;;;;;;19.52;77.82;100440.56;5039774;28;20029;-84
2023/07/27 07:32:26;;;;;;;0.10;0.10;;;;;;;19.48;77.47;100436.38;5041337;28;20017;-83
2023/07/27 07:34:53;;;;;;;0.10;0.10;;;;;;;19.51;77.22;100436.16;5044659;28;20049;-80
2023/07/27 07:37:19;;;;;;;0.10;0.10;;;;;;;19.45;77.95;100429.38;5056811;28;20072;-80
2023/07/27 07:39:45;;;;;;;0.10;0.10;;;;;;;19.48;77.86;100431.00;5056198;28;20033;-80
2023/07/27 07:42:11;;;;;;;0.00;0.00;;;;;;;19.54;78.13;100430.59;5055272;28;20042;-82
2023/07/27 07:44:37;;;;;;;0.00;0.00;;;;;;;19.52;78.40;100427.13;5055426;28;20101;-78
2023/07/27 07:47:03;;;;;;;0.10;0.10;;;;;;;19.58;78.33;100421.38;5042479;28;20076;-81
2023/07/27 07:49:29;;;;;;;0.10;0.10;;;;;;;19.61;77.93;100418.47;5036348;28;20403;-80
2023/07/27 07:51:55;;;;;;;0.00;0.00;;;;;;;19.56;78.47;100418.78;5038193;28;20510;-81
2023/07/27 07:54:21;;;;;;;0.08;0.08;;;;;;;19.64;78.70;100423.66;5046477;28;20021;-80
2023/07/27 07:56:48;;;;;;;0.00;0.00;;;;;;;19.66;78.61;100427.09;5057274;28;20029;-80
2023/07/27 07:59:15;;;;;;;0.00;0.00;;;;;;;19.80;78.47;100422.66;5048898;28;20053;-83
2023/07/27 08:01:41;;;;;;;0.00;0.00;;;;;;;19.70;78.90;100428.63;5038836;28;20029;-84
2023/07/27 08:04:08;;;;;;;0.10;0.10;;;;;;;19.80;78.06;100419.94;5039090;28;20036;-83
2023/07/27 08:06:34;;;;;;;0.00;0.00;;;;;;;19.88;77.38;100418.53;5039358;28;20032;-83
2023/07/27 08:09:00;;;;;;;0.00;0.00;;;;;;;19.77;78.07;100425.53;5040829;28;20021;-84
2023/07/27 08:11:26;;;;;;;0.00;0.00;;;;;;;19.80;77.84;100414.56;5042032;28;20028;-84
2023/07/27 08:13:52;;;;;;;0.10;0.10;;;;;;;19.81;77.98;100416.31;5044697;28;20029;-86
2023/07/27 08:16:18;;;;;;;0.00;0.00;;;;;;;19.76;78.07;100405.84;5047046;28;20056;-82
2023/07/27 08:18:44;;;;;;;0.10;0.10;;;;;;;19.76;78.29;100413.91;5044945;28;20033;-82
2023/07/27 08:21:10;;;;;;;3.60;1.27;;;;;;;19.87;78.43;100403.34;5042878;28;20034;-82
2023/07/27 08:23:36;;;;;;;0.45;0.45;;;;;;;19.89;78.39;100403.25;5040441;28;20056;-85
2023/07/27 08:26:07;;;;;;;0.08;0.08;;;;;;;20.02;78.58;100404.16;5040941;28;20029;-82
2023/07/27 08:28:33;;;;;;;0.10;0.10;;;;;;;20.09;78.25;100409.13;5040847;28;20484;-83
2023/07/27 08:31:03;;;;;;;0.10;0.10;;;;;;;20.14;78.31;100399.78;5041274;28;20450;-84
2023/07/27 08:33:29;;;;;;;0.10;0.10;;;;;;;20.16;78.23;100399.69;5044548;28;20043;-81
2023/07/27 08:35:57;;;;;;;0.05;0.05;;;;;;;20.15;78.00;100398.84;5036781;28;20029;-82
2023/07/27 08:38:23;;;;;;;0.10;0.10;;;;;;;20.13;78.15;100398.06;5037246;28;20071;-82
2023/07/27 08:40:55;;;;;;;0.20;0.20;;;;;;;20.22;77.53;100399.28;5039220;28;20033;-84
2023/07/27 08:43:21;;;;;;;0.10;0.10;;;;;;;20.18;77.95;100393.22;5041487;28;20566;-83
2023/07/27 08:45:47;;;;;;;0.32;0.32;;;;;;;20.18;78.15;100397.75;5041728;28;20033;-84
2023/07/27 08:48:15;;;;;;;0.10;0.10;;;;;;;20.27;77.92;100397.13;5041774;28;20057;-84
2023/07/27 08:50:44;;;;;;;0.10;0.10;;;;;;;20.30;77.93;100396.94;5042246;28;20040;-82
2023/07/27 08:53:10;;;;;;;0.10;0.10;;;;;;;20.39;77.99;100400.81;5041475;28;20018;-84
2023/07/27 08:55:39;;;;;;;0.10;0.10;;;;;;;20.45;78.56;100407.59;5042705;28;20400;-84
2023/07/27 08:58:05;;;;;;;0.10;0.10;;;;;;;20.46;78.16;100401.25;5041464;28;20053;-82
2023/07/27 09:00:33;;;;;;;0.10;0.10;;;;;;;20.32;78.29;100399.50;5042900;28;20049;-84
2023/07/27 09:03:00;;;;;;;0.08;0.08;;;;;;;20.47;77.77;100405.66;5040589;28;20399;-82
2023/07/27 09:08:21;;;;;;;0.00;0.00;;;;;;;20.50;77.87;100402.78;5128710;27;20393;-79
2023/07/27 09:10:47;;;;;;;0.10;0.10;;;;;;;20.50;77.70;100403.63;5118544;28;20057;-79
2023/07/27 09:13:14;;;;;;;0.10;0.10;;;;;;;20.43;78.18;100410.41;5095681;28;20035;-79
2023/07/27 09:15:44;;;;;;;0.10;0.10;;;;;;;20.48;78.14;100410.94;5085816;28;20036;-81
2023/07/27 09:18:12;;;;;;;0.10;0.10;;;;;;;20.53;78.16;100407.94;5086249;28;20047;-79
2023/07/27 09:20:40;;;;;;;0.00;0.00;;;;;;;20.62;78.28;100406.44;5085625;28;20032;-79
2023/07/27 09:23:07;;;;;;;0.00;0.00;;;;;;;20.60;78.27;100403.88;5076513;28;20088;-79
2023/07/27 09:25:33;;;;;;;0.00;0.00;;;;;;;20.71;78.10;100404.94;5084306;28;20115;-77
2023/07/27 09:27:59;;;;;;;0.00;0.00;;;;;;;20.69;78.28;100403.22;5084884;28;20028;-77
2023/07/27 09:30:26;;;;;;;0.00;0.00;;;;;;;20.70;78.12;100404.09;5084885;28;20056;-79
2023/07/27 09:32:53;;;;;;;0.10;0.10;;;;;;;20.74;78.11;100405.63;5093928;28;20195;-78
2023/07/27 09:35:20;;;;;;;0.00;0.00;;;;;;;20.79;77.77;100403.47;5094945;28;20033;-82
2023/07/27 09:37:50;;;;;;;0.00;0.00;;;;;;;20.80;77.30;100399.81;5084798;28;20020;-81
2023/07/27 09:40:19;;;;;;;0.10;0.10;;;;;;;20.80;77.60;100404.34;5085664;28;20059;-79
2023/07/27 09:42:46;;;;;;;0.45;0.45;;;;;;;20.81;77.19;100411.44;5084028;28;20111;-80
2023/07/27 09:45:13;;;;;;;0.10;0.10;;;;;;;20.78;77.00;100408.97;5085880;28;20040;-79
2023/07/27 09:47:40;;;;;;;0.10;0.10;;;;;;;20.68;77.44;100406.88;5087329;28;20050;-78
2023/07/27 09:50:07;;;;;;;0.00;0.00;;;;;;;20.76;77.70;100405.50;5094009;28;20024;-77
2023/07/27 09:52:36;;;;;;;0.03;0.03;;;;;;;20.78;77.48;100406.28;5084612;28;20041;-79
2023/07/27 09:55:03;;;;;;;0.10;0.10;;;;;;;20.66;77.52;100407.94;5078951;28;20020;-78
2023/07/27 09:57:29;;;;;;;0.10;0.10;;;;;;;20.67;77.17;100415.94;5084859;28;20025;-80
2023/07/27 09:59:56;;;;;;;0.05;0.05;;;;;;;20.58;78.01;100411.16;5085575;28;20088;-79
2023/07/27 10:02:22;;;;;;;0.10;0.10;;;;;;;20.69;77.88;100415.81;5084975;28;20036;-77
2023/07/27 10:04:50;;;;;;;0.88;0.80;;;;;;;20.68;78.08;100406.00;5086010;28;20095;-79
2023/07/27 10:07:19;;;;;;;0.10;0.10;;;;;;;20.64;77.76;100405.38;5085299;28;20037;-79
2023/07/27 10:09:46;;;;;;;0.00;0.00;;;;;;;20.66;78.02;100406.13;5092822;28;20031;-81
2023/07/27 10:12:27;;;;;;;0.00;0.00;;;;;;;20.78;77.49;100407.13;5084542;28;20033;-78
2023/07/27 10:15:21;;;;;;;0.25;0.25;;;;;;;20.74;78.01;100404.78;5093207;28;20024;-79
2023/07/27 10:17:51;;;;;;;0.00;0.00;;;;;;;20.76;78.08;100402.81;5082363;28;20033;-78
2023/07/27 10:20:23;;;;;;;0.10;0.10;;;;;;;20.83;78.32;100393.34;5072301;28;20057;-80
2023/07/27 10:22:52;;;;;;;0.00;0.00;;;;;;;20.87;77.96;100399.38;5072252;28;20033;-78
2023/07/27 10:25:19;;;;;;;0.00;0.00;;;;;;;20.94;77.58;100398.81;5072201;28;20070;-81
2023/07/27 10:28:02;;;;;;;0.10;0.10;;;;;;;20.89;78.12;100395.59;5072424;28;20064;-78
2023/07/27 10:30:31;;;;;;;0.10;0.10;;;;;;;20.86;78.30;100406.59;5085509;28;20119;-79
2023/07/27 10:33:09;;;;;;;0.10;0.10;;;;;;;20.94;78.75;100404.22;5069356;28;20037;-80
2023/07/27 10:36:04;;;;;;;0.10;0.10;;;;;;;21.10;79.04;100411.22;5069305;28;20521;-79
2023/07/27 10:38:32;;;;;;;0.10;0.10;;;;;;;21.26;78.62;100403.75;5065692;28;20299;-80
2023/07/27 10:41:12;;;;;;;0.25;0.25;;;;;;;21.44;77.80;100401.53;5069512;28;20093;-78
2023/07/27 10:43:58;;;;;;;0.00;0.00;;;;;;;21.49;77.83;100401.22;5068756;28;20051;-78
2023/07/27 10:46:24;;;;;;;0.00;0.00;;;;;;;21.54;77.19;100404.44;5063448;28;20047;-77
2023/07/27 10:49:06;;;;;;;0.00;0.00;;;;;;;21.54;76.71;100404.44;5068777;28;20068;-79
2023/07/27 10:51:33;;;;;;;0.10;0.10;;;;;;;21.55;76.23;100406.16;5069324;28;20661;-80
2023/07/27 10:53:59;;;;;;;0.25;0.25;;;;;;;21.63;76.12;100389.44;5078069;28;20025;-78
2023/07/27 10:56:27;;;;;;;0.10;0.10;;;;;;;21.66;75.87;100391.94;5074921;28;20029;-81
2023/07/27 10:59:00;;;;;;;0.10;0.10;;;;;;;21.72;75.80;100390.59;5070153;28;20060;-79
2023/07/27 11:01:29;;;;;;;0.00;0.00;;;;;;;21.70;75.43;100395.28;5073904;28;20017;-77
2023/07/27 11:03:56;;;;;;;0.10;0.10;;;;;;;21.44;75.39;100398.00;5078167;28;20017;-76
2023/07/27 11:06:24;;;;;;;0.10;0.10;;;;;;;21.43;75.38;100399.84;5069184;28;20104;-79
2023/07/27 11:08:50;;;;;;;0.10;0.10;;;;;;;21.37;75.65;100408.38;5062610;28;20032;-77
2023/07/27 11:11:20;;;;;;;0.03;0.03;;;;;;;21.34;76.09;100405.88;5063035;28;20036;-77
2023/07/27 11:13:46;;;;;;;0.10;0.10;;;;;;;21.37;77.01;100407.50;5063537;28;20025;-77
2023/07/27 11:16:13;;;;;;;0.10;0.10;;;;;;;21.47;77.25;100404.03;5075002;28;20025;-80
2023/07/27 11:18:41;;;;;;;0.08;0.08;;;;;;;21.52;76.89;100409.09;5067780;28;20028;-78
2023/07/27 11:21:09;;;;;;;0.10;0.10;;;;;;;21.42;76.58;100403.50;5058841;28;20138;-78
2023/07/27 11:23:51;;;;;;;0.00;0.00;;;;;;;21.48;75.93;100399.50;5065079;28;20035;-79
2023/07/27 11:26:17;;;;;;;0.10;0.10;;;;;;;21.48;76.18;100410.28;5058898;28;20043;-80
2023/07/27 11:28:43;;;;;;;0.10;0.10;;;;;;;21.45;76.61;100405.97;5066726;28;20029;-80
2023/07/27 11:31:14;;;;;;;0.10;0.10;;;;;;;21.42;76.86;100400.81;5065173;28;20039;-80
2023/07/27 11:33:41;;;;;;;0.10;0.10;;;;;;;21.46;76.66;100407.69;5065412;28;20017;-79